Time;durP1;ratioP1;P1;durP2;ratioP2;P2;SDS_P1;SDS_P2;PMS_P1;PMS_P2;Temp;Humidity;BMP_temperature;BMP_pressure;BME280_temperature;BME280_humidity;BME280_pressure;Samples;Min_cycle;Max_cycle;Signal;HPM_P1;HPM_P2
2023/09/30 00:01:55;;;;;;;2.47;1.20;;;19.70;99.90;;;;;;7397826;19;20127;-90
2023/09/30 00:04:21;;;;;;;0.60;0.60;;;19.70;99.90;;;;;;7396879;19;20147;-88
2023/09/30 00:06:47;;;;;;;3.05;1.02;;;19.90;99.90;;;;;;7393547;19;20150;-89
2023/09/30 00:09:13;;;;;;;2.35;0.85;;;19.60;99.90;;;;;;7393341;19;20150;-89
2023/09/30 00:11:39;;;;;;;0.77;0.70;;;19.60;99.90;;;;;;7393161;19;20150;-89
2023/09/30 00:14:06;;;;;;;1.85;0.65;;;19.60;99.90;;;;;;7394183;19;20615;-89
2023/09/30 00:16:32;;;;;;;1.48;0.90;;;19.70;99.90;;;;;;7393985;19;20226;-88
2023/09/30 00:18:58;;;;;;;2.17;1.00;;;19.80;99.90;;;;;;7394375;19;20138;-88
2023/09/30 00:21:25;;;;;;;1.00;0.70;;;19.80;99.90;;;;;;7394792;19;20152;-88
2023/09/30 00:24:09;;;;;;;2.00;0.90;;;19.70;99.90;;;;;;7395323;19;20219;-88
2023/09/30 00:26:38;;;;;;;1.02;0.82;;;19.70;99.90;;;;;;7393693;19;20607;-87
2023/09/30 00:29:04;;;;;;;1.27;0.80;;;19.70;99.90;;;;;;7393996;19;20165;-87
2023/09/30 00:31:31;;;;;;;1.75;1.05;;;19.70;99.90;;;;;;7393007;19;20174;-86
2023/09/30 00:33:57;;;;;;;2.67;1.17;;;19.60;99.90;;;;;;7394609;19;20142;-88
2023/09/30 00:36:22;;;;;;;1.80;1.05;;;19.60;99.90;;;;;;7393031;19;20149;-88
2023/09/30 00:38:48;;;;;;;2.10;0.88;;;19.60;99.90;;;;;;7393502;19;20214;-89
2023/09/30 00:41:14;;;;;;;1.38;0.82;;;19.50;99.90;;;;;;7392873;19;20206;-88
2023/09/30 00:43:41;;;;;;;1.92;0.90;;;19.60;99.90;;;;;;7395095;19;20146;-89
2023/09/30 00:46:12;;;;;;;0.90;0.50;;;19.30;99.90;;;;;;7394724;19;20150;-88
2023/09/30 00:48:39;;;;;;;1.42;0.70;;;19.40;99.90;;;;;;7392176;19;20471;-89
2023/09/30 00:51:05;;;;;;;0.70;0.60;;;19.30;99.90;;;;;;7391832;19;20159;-87
2023/09/30 00:53:32;;;;;;;0.60;0.50;;;19.50;99.90;;;;;;7391907;19;20146;-87
2023/09/30 00:55:59;;;;;;;0.85;0.50;;;19.20;99.90;;;;;;7393864;19;20217;-87
2023/09/30 00:58:28;;;;;;;4.35;0.73;;;19.20;99.90;;;;;;7393424;19;20139;-88
2023/09/30 01:00:56;;;;;;;1.02;0.93;;;19.30;99.90;;;;;;7398682;19;20150;-88
2023/09/30 01:03:23;;;;;;;2.42;0.52;;;19.40;99.90;;;;;;7391777;19;20138;-88
2023/09/30 01:05:49;;;;;;;1.08;0.73;;;19.40;99.90;;;;;;7390417;19;20155;-88
2023/09/30 01:08:16;;;;;;;1.63;0.98;;;19.40;99.90;;;;;;7391064;19;20529;-88
2023/09/30 01:10:42;;;;;;;0.50;0.50;;;19.40;99.90;;;;;;7389740;19;20171;-88
2023/09/30 01:13:08;;;;;;;1.48;0.75;;;19.30;99.90;;;;;;7390773;19;20164;-89
2023/09/30 01:15:34;;;;;;;2.28;0.85;;;19.30;99.90;;;;;;7390490;19;20151;-88
2023/09/30 01:18:00;;;;;;;1.02;0.60;;;19.30;99.90;;;;;;7393699;19;20567;-88
2023/09/30 01:20:27;;;;;;;2.22;0.77;;;19.20;99.90;;;;;;7393020;19;20512;-86
2023/09/30 01:22:55;;;;;;;1.98;0.70;;;19.30;99.90;;;;;;7391924;19;20211;-88
2023/09/30 01:25:21;;;;;;;1.35;0.80;;;19.20;99.90;;;;;;7391942;19;20143;-88
2023/09/30 01:27:47;;;;;;;1.67;0.73;;;19.30;99.90;;;;;;7393062;19;20151;-88
2023/09/30 01:30:13;;;;;;;0.93;0.60;;;19.30;99.90;;;;;;7391306;19;20596;-89
2023/09/30 01:32:40;;;;;;;0.70;0.70;;;19.30;99.90;;;;;;7389166;19;20158;-89
2023/09/30 01:35:06;;;;;;;0.47;0.47;;;19.40;99.90;;;;;;7389841;19;20133;-89
2023/09/30 01:37:32;;;;;;;1.25;0.75;;;19.30;99.90;;;;;;7390906;19;20595;-89
2023/09/30 01:39:58;;;;;;;0.57;0.57;;;19.30;99.90;;;;;;7391397;19;20152;-88
2023/09/30 01:42:23;;;;;;;0.90;0.65;;;19.40;99.90;;;;;;7391801;19;20190;-88
2023/09/30 01:44:49;;;;;;;0.82;0.55;;;19.20;99.90;;;;;;7391033;19;20157;-89
2023/09/30 01:47:15;;;;;;;0.73;0.63;;;19.20;99.90;;;;;;7391531;19;20142;-89
2023/09/30 01:49:41;;;;;;;1.00;0.70;;;19.30;99.90;;;;;;7391310;19;20162;-89
2023/09/30 01:52:25;;;;;;;0.70;0.55;;;19.20;99.90;;;;;;7388846;19;20141;-89
2023/09/30 01:54:58;;;;;;;2.60;0.57;;;19.20;99.90;;;;;;7390702;19;20139;-89
2023/09/30 01:57:23;;;;;;;1.02;0.68;;;19.20;99.90;;;;;;7392466;19;20139;-89
2023/09/30 02:00:17;;;;;;;0.75;0.68;;;19.20;99.90;;;;;;7390642;19;20167;-88
2023/09/30 02:03:10;;;;;;;0.68;0.63;;;19.30;99.90;;;;;;7393625;19;20178;-88
2023/09/30 02:05:45;;;;;;;0.98;0.50;;;19.20;99.90;;;;;;7395785;19;20300;-89
2023/09/30 02:08:13;;;;;;;0.52;0.50;;;19.30;99.90;;;;;;7398457;19;20171;-88
2023/09/30 02:10:40;;;;;;;1.00;0.65;;;19.40;99.90;;;;;;7396648;19;20218;-87
2023/09/30 02:13:06;;;;;;;1.10;0.50;;;19.40;99.90;;;;;;7394255;19;20238;-87
2023/09/30 02:15:51;;;;;;;1.02;0.60;;;19.50;99.90;;;;;;7396678;19;20214;-87
2023/09/30 02:18:17;;;;;;;0.50;0.50;;;19.40;99.90;;;;;;7398230;19;20154;-87
2023/09/30 02:20:44;;;;;;;0.80;0.60;;;19.40;99.90;;;;;;7397313;19;20158;-88
2023/09/30 02:23:13;;;;;;;0.57;0.47;;;19.30;99.90;;;;;;7398437;19;20155;-87
2023/09/30 02:25:39;;;;;;;0.75;0.75;;;19.30;99.90;;;;;;7397403;19;20472;-88
2023/09/30 02:28:06;;;;;;;0.80;0.52;;;19.20;99.90;;;;;;7396656;19;20246;-85
2023/09/30 02:30:32;;;;;;;1.38;0.70;;;19.20;99.90;;;;;;7398053;19;20185;-87
2023/09/30 02:32:58;;;;;;;0.75;0.63;;;19.00;99.90;;;;;;7394662;19;20682;-86
2023/09/30 02:35:25;;;;;;;0.90;0.80;;;19.00;99.90;;;;;;7396390;19;20151;-87
2023/09/30 02:37:51;;;;;;;1.63;0.75;;;18.90;99.90;;;;;;7396412;19;20218;-88
2023/09/30 02:40:25;;;;;;;1.65;0.60;;;18.90;99.90;;;;;;7395152;19;20467;-87
2023/09/30 02:43:09;;;;;;;0.68;0.60;;;19.00;99.90;;;;;;7399350;19;20145;-86
2023/09/30 02:45:47;;;;;;;0.63;0.60;;;18.90;99.90;;;;;;7394582;19;20134;-84
2023/09/30 02:48:16;;;;;;;0.65;0.60;;;19.00;99.90;;;;;;7395957;19;20210;-86
2023/09/30 02:50:46;;;;;;;1.88;0.85;;;19.00;99.90;;;;;;7395315;19;20135;-87
2023/09/30 02:53:15;;;;;;;2.75;0.93;;;19.10;99.90;;;;;;7397208;19;20470;-87
2023/09/30 02:55:42;;;;;;;1.05;0.73;;;19.00;99.90;;;;;;7397888;19;20183;-88
2023/09/30 02:58:11;;;;;;;0.60;0.60;;;18.80;99.90;;;;;;7394626;19;20154;-87
2023/09/30 03:00:37;;;;;;;1.98;1.02;;;18.90;99.90;;;;;;7399533;19;20146;-86
2023/09/30 03:03:04;;;;;;;0.75;0.50;;;18.90;99.90;;;;;;7396962;19;20761;-87
2023/09/30 03:05:33;;;;;;;0.80;0.68;;;18.90;99.90;;;;;;7396437;19;20661;-86
2023/09/30 03:08:00;;;;;;;1.70;1.00;;;18.90;99.90;;;;;;7397709;19;20142;-86
2023/09/30 03:10:29;;;;;;;0.63;0.60;;;18.90;99.90;;;;;;7400031;19;20150;-87
2023/09/30 03:13:01;;;;;;;1.67;0.80;;;18.80;99.90;;;;;;7405973;19;20142;-86
2023/09/30 03:15:28;;;;;;;0.98;0.70;;;18.90;99.90;;;;;;7408057;19;20138;-87
2023/09/30 03:17:55;;;;;;;0.77;0.75;;;18.90;99.90;;;;;;7408738;19;20131;-86
2023/09/30 03:20:21;;;;;;;1.58;1.05;;;18.80;99.90;;;;;;7398810;19;20161;-86
2023/09/30 03:22:47;;;;;;;1.25;0.90;;;18.90;99.90;;;;;;7400641;19;20143;-85
2023/09/30 03:25:17;;;;;;;1.20;0.75;;;18.90;99.90;;;;;;7402890;19;20178;-88
2023/09/30 03:27:44;;;;;;;1.92;0.98;;;18.90;99.90;;;;;;7405046;19;20154;-87
2023/09/30 03:30:11;;;;;;;0.80;0.70;;;18.90;99.90;;;;;;7402197;19;20142;-87
2023/09/30 03:32:38;;;;;;;1.73;0.70;;;18.90;99.90;;;;;;7398349;19;20131;-85
2023/09/30 03:35:10;;;;;;;1.20;0.80;;;18.70;99.90;;;;;;7401010;19;20156;-86
2023/09/30 03:37:40;;;;;;;0.77;0.70;;;18.80;99.90;;;;;;7399462;19;20542;-87
2023/09/30 03:40:14;;;;;;;0.80;0.80;;;18.90;99.90;;;;;;7398049;19;20166;-87
2023/09/30 03:42:44;;;;;;;0.73;0.60;;;18.90;99.90;;;;;;7398052;19;20126;-88
2023/09/30 03:45:10;;;;;;;0.70;0.70;;;18.80;99.90;;;;;;7397529;19;20146;-88
2023/09/30 03:47:37;;;;;;;1.98;1.15;;;18.80;99.90;;;;;;7395119;19;20172;-88
2023/09/30 03:50:04;;;;;;;0.88;0.65;;;18.80;99.90;;;;;;7396761;19;20143;-88
2023/09/30 03:52:33;;;;;;;2.15;0.80;;;19.00;99.90;;;;;;7393826;19;20130;-87
2023/09/30 03:55:05;;;;;;;0.40;0.40;;;18.90;99.90;;;;;;7395176;19;20131;-87
2023/09/30 03:57:34;;;;;;;1.48;0.70;;;18.90;99.90;;;;;;7395690;19;20194;-87
2023/09/30 04:00:06;;;;;;;0.77;0.55;;;19.00;99.90;;;;;;7395703;19;20187;-87
2023/09/30 04:02:32;;;;;;;0.85;0.65;;;19.00;99.90;;;;;;7394348;19;20146;-88
2023/09/30 04:04:59;;;;;;;0.90;0.70;;;18.90;99.90;;;;;;7391271;19;20170;-87
2023/09/30 04:07:27;;;;;;;1.40;1.10;;;19.10;99.90;;;;;;7394988;19;20127;-88
2023/09/30 04:09:55;;;;;;;0.77;0.60;;;18.90;99.90;;;;;;7394928;19;20586;-88
2023/09/30 04:12:24;;;;;;;1.60;0.98;;;18.80;99.90;;;;;;7392901;19;21025;-86
2023/09/30 04:14:50;;;;;;;1.90;1.02;;;18.70;99.90;;;;;;7394641;19;20154;-87
2023/09/30 04:17:16;;;;;;;0.60;0.60;;;18.70;99.90;;;;;;7395001;19;20610;-88
2023/09/30 04:19:42;;;;;;;1.83;0.90;;;18.60;99.90;;;;;;7393092;19;20150;-87
2023/09/30 04:22:08;;;;;;;1.02;0.85;;;18.70;99.90;;;;;;7394173;19;20161;-86
2023/09/30 04:24:34;;;;;;;1.23;0.80;;;18.70;99.90;;;;;;7394692;19;20158;-86
2023/09/30 04:27:03;;;;;;;0.68;0.65;;;18.70;99.90;;;;;;7389089;19;20174;-85
2023/09/30 04:29:29;;;;;;;0.70;0.70;;;18.70;99.90;;;;;;7392661;19;20138;-88
2023/09/30 04:31:56;;;;;;;0.90;0.75;;;18.60;99.90;;;;;;7390617;19;20135;-87
2023/09/30 04:34:22;;;;;;;0.95;0.70;;;18.60;99.90;;;;;;7392720;19;20142;-87
2023/09/30 04:36:48;;;;;;;0.98;0.77;;;18.60;99.90;;;;;;7392523;19;20144;-86
2023/09/30 04:39:15;;;;;;;1.00;0.90;;;18.60;99.90;;;;;;7392312;19;20139;-86
2023/09/30 04:41:44;;;;;;;0.98;0.80;;;18.60;99.90;;;;;;7392875;19;20588;-86
2023/09/30 04:44:09;;;;;;;2.67;0.80;;;18.50;99.90;;;;;;7391331;19;20150;-87
2023/09/30 04:46:40;;;;;;;0.90;0.77;;;18.60;99.90;;;;;;7392896;19;20150;-86
2023/09/30 04:49:09;;;;;;;2.50;1.05;;;18.70;99.90;;;;;;7393224;19;20221;-85
2023/09/30 04:51:35;;;;;;;0.98;0.80;;;18.70;99.90;;;;;;7392803;19;20619;-87
2023/09/30 04:54:01;;;;;;;2.83;0.80;;;18.70;99.90;;;;;;7392480;19;20141;-85
2023/09/30 04:56:27;;;;;;;1.00;0.90;;;18.60;99.90;;;;;;7391941;19;20157;-84
2023/09/30 04:58:53;;;;;;;1.38;0.95;;;18.70;99.90;;;;;;7393180;19;20146;-85
2023/09/30 05:01:31;;;;;;;1.55;0.90;;;18.60;99.90;;;;;;7392342;19;20142;-86
2023/09/30 05:04:05;;;;;;;1.10;1.00;;;18.50;99.90;;;;;;7391811;19;20540;-87
2023/09/30 05:06:33;;;;;;;0.70;0.70;;;18.40;99.90;;;;;;7390085;19;20180;-86
2023/09/30 05:08:59;;;;;;;1.33;0.60;;;18.20;99.90;;;;;;7391730;19;20154;-85
2023/09/30 05:11:29;;;;;;;0.68;0.68;;;18.10;99.90;;;;;;7390648;19;20226;-84
2023/09/30 05:13:55;;;;;;;1.45;1.00;;;18.10;99.90;;;;;;7392168;19;20158;-86
2023/09/30 05:16:21;;;;;;;0.80;0.80;;;18.30;99.90;;;;;;7391854;19;20150;-85
2023/09/30 05:18:49;;;;;;;3.38;0.77;;;18.30;99.90;;;;;;7393644;19;20485;-87
2023/09/30 05:21:15;;;;;;;0.82;0.80;;;17.90;99.90;;;;;;7391198;19;20475;-84
2023/09/30 05:23:59;;;;;;;1.23;0.70;;;17.90;99.90;;;;;;7392194;19;20159;-84
2023/09/30 05:26:25;;;;;;;1.10;1.00;;;17.90;99.90;;;;;;7390399;19;20453;-86
2023/09/30 05:28:54;;;;;;;0.73;0.68;;;18.10;99.90;;;;;;7390857;19;20131;-85
2023/09/30 05:31:26;;;;;;;1.92;0.95;;;18.30;99.90;;;;;;7390831;19;20150;-85
2023/09/30 05:33:52;;;;;;;1.35;0.90;;;18.40;99.90;;;;;;7389034;19;20612;-86
2023/09/30 05:36:20;;;;;;;1.30;1.00;;;18.30;99.90;;;;;;7390087;19;20501;-86
2023/09/30 05:38:47;;;;;;;1.52;1.00;;;18.10;99.90;;;;;;7393011;19;20139;-86
2023/09/30 05:41:15;;;;;;;1.50;0.80;;;18.00;99.90;;;;;;7395404;19;20215;-86
2023/09/30 05:43:43;;;;;;;0.82;0.75;;;18.10;99.90;;;;;;7397862;19;20143;-86
2023/09/30 05:46:15;;;;;;;1.10;0.98;;;18.20;99.90;;;;;;7396673;19;20138;-86
2023/09/30 05:48:41;;;;;;;1.65;0.70;;;18.20;99.90;;;;;;7397580;19;20146;-86
2023/09/30 05:51:07;;;;;;;1.05;0.82;;;17.90;99.90;;;;;;7395779;19;20154;-86
2023/09/30 05:53:33;;;;;;;0.65;0.50;;;18.10;99.90;;;;;;7396886;19;20141;-86
2023/09/30 05:55:59;;;;;;;0.60;0.60;;;18.20;99.90;;;;;;7395961;19;20134;-85
2023/09/30 05:58:26;;;;;;;0.85;0.73;;;18.40;99.90;;;;;;7396187;19;20502;-85
2023/09/30 06:00:53;;;;;;;0.68;0.68;;;18.40;99.90;;;;;;7394796;19;20155;-86
2023/09/30 06:03:21;;;;;;;0.93;0.70;;;18.50;99.90;;;;;;7395243;19;20173;-84
2023/09/30 06:05:48;;;;;;;1.80;0.82;;;18.60;99.90;;;;;;7395130;19;20204;-85
2023/09/30 06:08:14;;;;;;;1.35;0.90;;;18.70;99.90;;;;;;7394415;19;20139;-84
2023/09/30 06:10:43;;;;;;;1.55;0.70;;;18.70;99.90;;;;;;7395369;19;20201;-85
2023/09/30 06:13:10;;;;;;;1.52;1.15;;;18.70;99.90;;;;;;7392583;19;20480;-84
2023/09/30 06:15:40;;;;;;;1.52;0.90;;;18.60;99.90;;;;;;7394922;19;20162;-87
2023/09/30 06:18:07;;;;;;;1.70;0.82;;;18.50;99.90;;;;;;7395961;19;20599;-86
2023/09/30 06:20:33;;;;;;;1.52;1.02;;;18.60;99.90;;;;;;7395580;19;20657;-86
2023/09/30 06:23:02;;;;;;;0.85;0.70;;;18.60;99.90;;;;;;7395445;19;20235;-85
2023/09/30 06:25:30;;;;;;;0.80;0.70;;;18.60;99.90;;;;;;7395080;19;20314;-85
2023/09/30 06:27:56;;;;;;;1.33;0.73;;;18.70;99.90;;;;;;7398569;19;20201;-85
2023/09/30 06:30:29;;;;;;;1.45;1.00;;;18.80;99.90;;;;;;7402754;19;20139;-85
2023/09/30 06:32:59;;;;;;;1.13;0.80;;;18.80;99.90;;;;;;7393710;19;20524;-87
2023/09/30 06:35:29;;;;;;;1.77;0.93;;;18.70;99.90;;;;;;7397486;19;20138;-85
2023/09/30 06:37:55;;;;;;;1.42;0.95;;;18.80;99.90;;;;;;7393177;19;20198;-85
2023/09/30 06:40:22;;;;;;;0.52;0.50;;;18.80;99.90;;;;;;7395673;19;20714;-84
2023/09/30 06:42:47;;;;;;;2.05;1.10;;;18.80;99.90;;;;;;7394922;19;20158;-86
2023/09/30 06:45:13;;;;;;;1.20;0.80;;;18.80;99.90;;;;;;7394806;19;20130;-86
2023/09/30 06:47:41;;;;;;;1.35;0.90;;;18.80;99.90;;;;;;7395246;19;20130;-88
2023/09/30 06:50:16;;;;;;;0.88;0.75;;;18.70;99.90;;;;;;7394335;19;20142;-85
2023/09/30 06:52:45;;;;;;;1.10;0.98;;;18.80;99.90;;;;;;7393515;19;20146;-86
2023/09/30 06:55:14;;;;;;;1.27;1.13;;;18.80;99.90;;;;;;7394647;19;20143;-86
2023/09/30 06:57:43;;;;;;;2.03;1.15;;;18.90;99.90;;;;;;7395002;19;20131;-87
2023/09/30 07:00:11;;;;;;;1.27;1.08;;;18.90;99.90;;;;;;7393732;19;20531;-87
2023/09/30 07:02:38;;;;;;;1.25;0.90;;;18.90;99.90;;;;;;7395183;19;20147;-86
2023/09/30 07:05:12;;;;;;;2.25;1.48;;;18.90;99.90;;;;;;7392367;19;20178;-87
2023/09/30 07:07:39;;;;;;;2.78;1.10;;;19.00;99.90;;;;;;7394996;19;20154;-85
2023/09/30 07:10:08;;;;;;;1.40;1.00;;;19.00;99.90;;;;;;7395424;19;20162;-86
2023/09/30 07:12:35;;;;;;;1.48;1.20;;;19.10;99.90;;;;;;7392627;19;20146;-87
2023/09/30 07:15:05;;;;;;;1.25;0.85;;;19.00;99.90;;;;;;7394270;19;20607;-87
2023/09/30 07:17:32;;;;;;;0.82;0.80;;;19.00;99.90;;;;;;7393090;19;20154;-86
2023/09/30 07:19:57;;;;;;;1.17;1.00;;;18.90;99.90;;;;;;7393934;19;20150;-86
2023/09/30 07:22:23;;;;;;;1.08;0.82;;;18.90;99.90;;;;;;7394259;19;20181;-85
2023/09/30 07:24:49;;;;;;;0.90;0.80;;;18.80;99.90;;;;;;7394562;19;20150;-85
2023/09/30 07:27:15;;;;;;;1.30;0.85;;;19.00;99.90;;;;;;7394839;19;20177;-87
2023/09/30 07:29:41;;;;;;;1.52;0.90;;;19.00;99.90;;;;;;7394317;19;20166;-85
2023/09/30 07:32:08;;;;;;;1.63;1.23;;;19.00;99.90;;;;;;7391832;19;20178;-85
2023/09/30 07:34:33;;;;;;;2.28;0.93;;;19.00;99.90;;;;;;7394277;19;20143;-85
2023/09/30 07:36:59;;;;;;;1.58;0.93;;;18.90;99.90;;;;;;7394716;19;20533;-86
2023/09/30 07:39:25;;;;;;;1.63;1.20;;;18.90;99.90;;;;;;7393333;19;20154;-84
2023/09/30 07:41:51;;;;;;;2.50;1.27;;;18.90;99.90;;;;;;7394358;19;20161;-86
2023/09/30 07:44:17;;;;;;;1.85;1.10;;;18.90;99.90;;;;;;7393201;19;20254;-86
2023/09/30 07:46:43;;;;;;;1.23;0.98;;;18.90;99.90;;;;;;7394771;19;20154;-87
2023/09/30 07:49:21;;;;;;;1.15;0.80;;;19.00;99.90;;;;;;7397981;19;20146;-89
2023/09/30 07:51:47;;;;;;;1.35;0.95;;;19.20;99.90;;;;;;7399111;19;20150;-86
2023/09/30 07:54:13;;;;;;;1.95;1.00;;;19.20;99.90;;;;;;7394137;19;20165;-87
2023/09/30 07:56:39;;;;;;;1.65;1.02;;;19.10;99.90;;;;;;7398490;19;20142;-88
2023/09/30 07:59:05;;;;;;;1.13;0.82;;;19.10;99.90;;;;;;7395516;19;20131;-86
2023/09/30 08:01:34;;;;;;;0.82;0.80;;;19.10;99.90;;;;;;7392226;19;20134;-88
2023/09/30 08:04:00;;;;;;;1.90;1.20;;;19.10;99.90;;;;;;7392839;19;20228;-86
2023/09/30 08:06:26;;;;;;;2.97;1.95;;;19.10;99.90;;;;;;7390856;19;20146;-89
2023/09/30 08:08:52;;;;;;;2.65;1.45;;;19.00;99.90;;;;;;7393502;19;20218;-85
2023/09/30 08:11:21;;;;;;;1.10;1.00;;;18.90;99.90;;;;;;7392395;19;20237;-89
2023/09/30 08:13:47;;;;;;;6.95;4.50;;;19.00;99.90;;;;;;7394684;19;20142;-87
2023/09/30 08:16:13;;;;;;;1.88;1.25;;;18.70;99.90;;;;;;7394133;19;20138;-84
2023/09/30 08:18:39;;;;;;;1.27;1.00;;;18.60;99.90;;;;;;7393305;19;20143;-85
2023/09/30 08:21:10;;;;;;;1.33;1.08;;;18.80;99.90;;;;;;7393893;19;20141;-87
2023/09/30 08:23:36;;;;;;;1.98;1.20;;;19.00;99.90;;;;;;7393128;19;20150;-85
2023/09/30 08:26:01;;;;;;;1.10;0.95;;;19.20;99.90;;;;;;7392865;19;20176;-85
2023/09/30 08:28:27;;;;;;;1.60;1.08;;;19.10;99.90;;;;;;7393425;19;20194;-86
2023/09/30 08:30:58;;;;;;;1.58;1.15;;;19.20;99.90;;;;;;7394872;19;20158;-89
2023/09/30 08:33:26;;;;;;;1.33;1.23;;;19.40;99.90;;;;;;7399097;19;20440;-87
2023/09/30 08:35:51;;;;;;;2.72;1.35;;;19.40;99.90;;;;;;7396940;19;20150;-86
2023/09/30 08:38:17;;;;;;;1.50;0.98;;;19.40;99.90;;;;;;7394568;19;20140;-87
2023/09/30 08:40:45;;;;;;;1.13;1.02;;;19.50;99.90;;;;;;7395244;19;20171;-87
2023/09/30 08:43:12;;;;;;;2.17;1.23;;;19.50;99.90;;;;;;7393269;19;20504;-87
2023/09/30 08:45:42;;;;;;;1.30;0.93;;;19.70;99.90;;;;;;7392015;19;20547;-89
2023/09/30 08:48:08;;;;;;;1.30;0.98;;;19.80;99.90;;;;;;7392289;19;20197;-87
2023/09/30 08:50:35;;;;;;;2.35;1.30;;;19.80;99.90;;;;;;7393966;19;20621;-86
2023/09/30 08:53:05;;;;;;;2.72;1.17;;;20.00;99.90;;;;;;7389931;19;20154;-86
2023/09/30 08:55:33;;;;;;;0.77;0.77;;;20.00;99.90;;;;;;7392684;19;20146;-85
2023/09/30 08:57:59;;;;;;;1.08;0.98;;;20.00;99.90;;;;;;7391732;19;20663;-87
2023/09/30 09:00:26;;;;;;;1.80;1.15;;;20.10;99.90;;;;;;7392940;19;20148;-87
2023/09/30 09:02:59;;;;;;;2.08;0.98;;;20.20;99.90;;;;;;7394672;19;20150;-92
2023/09/30 09:05:29;;;;;;;1.45;1.20;;;20.30;99.90;;;;;;7393003;19;20177;-90
2023/09/30 09:07:54;;;;;;;1.65;1.20;;;20.20;99.90;;;;;;7393730;19;20227;-88
2023/09/30 09:10:20;;;;;;;1.10;1.00;;;20.20;99.90;;;;;;7394094;19;20138;-82
2023/09/30 09:13:01;;;;;;;1.70;1.20;;;20.30;99.90;;;;;;7394066;19;20170;-89
2023/09/30 09:15:30;;;;;;;1.55;1.15;;;20.40;99.90;;;;;;7399581;19;20173;-88
2023/09/30 09:17:59;;;;;;;1.65;1.10;;;20.30;99.90;;;;;;7406340;19;20158;-85
2023/09/30 09:20:25;;;;;;;1.15;1.05;;;20.10;99.90;;;;;;7402750;19;20133;-83
2023/09/30 09:22:58;;;;;;;2.15;0.85;;;20.40;99.90;;;;;;7400837;19;20150;-89
2023/09/30 09:25:24;;;;;;;1.02;0.82;;;20.50;99.90;;;;;;7404791;19;20155;-86
2023/09/30 09:27:51;;;;;;;1.08;0.82;;;20.60;99.90;;;;;;7402967;19;20233;-84
2023/09/30 09:30:27;;;;;;;2.17;1.17;;;20.80;99.90;;;;;;7401778;19;20151;-91
2023/09/30 09:33:00;;;;;;;1.60;1.23;;;21.00;99.90;;;;;;7405866;19;20146;-89
2023/09/30 09:35:30;;;;;;;2.15;1.35;;;21.10;99.90;;;;;;7403898;19;20158;-89
2023/09/30 09:37:57;;;;;;;1.88;1.10;;;21.00;99.90;;;;;;7398532;19;20146;-86
2023/09/30 09:40:25;;;;;;;3.90;1.30;;;20.90;99.90;;;;;;7399767;19;20226;-88
2023/09/30 09:42:53;;;;;;;1.52;1.02;;;21.00;99.90;;;;;;7398566;19;20158;-87
2023/09/30 09:45:24;;;;;;;1.40;1.20;;;21.00;99.90;;;;;;7396672;19;20146;-87
2023/09/30 09:47:54;;;;;;;1.20;0.98;;;21.00;99.90;;;;;;7400517;19;20137;-90
2023/09/30 09:50:21;;;;;;;0.93;0.80;;;21.10;99.90;;;;;;7399793;19;20134;-90
2023/09/30 09:52:58;;;;;;;2.28;1.17;;;21.20;99.90;;;;;;7400527;19;20147;-90
2023/09/30 09:55:25;;;;;;;1.70;1.38;;;21.00;99.90;;;;;;7400169;19;20138;-88
2023/09/30 09:57:51;;;;;;;2.50;1.20;;;21.10;99.90;;;;;;7399509;19;20127;-91
2023/09/30 10:00:19;;;;;;;1.00;0.90;;;21.00;99.90;;;;;;7404717;19;20571;-90
2023/09/30 10:02:46;;;;;;;1.45;1.17;;;21.00;99.90;;;;;;7401161;19;20134;-91
2023/09/30 10:05:13;;;;;;;2.58;0.82;;;20.90;99.90;;;;;;7396485;19;20213;-90
2023/09/30 10:07:42;;;;;;;1.33;1.13;;;21.00;99.90;;;;;;7402859;19;20139;-91
2023/09/30 10:10:23;;;;;;;1.25;1.08;;;21.00;99.90;;;;;;7403400;19;21398;-90
2023/09/30 10:12:51;;;;;;;1.52;0.95;;;21.20;99.90;;;;;;7404014;19;20207;-93
2023/09/30 10:15:29;;;;;;;1.10;0.90;;;21.20;99.90;;;;;;7404314;19;20139;-90
2023/09/30 10:18:04;;;;;;;2.25;1.20;;;21.40;99.90;;;;;;7410807;19;20840;-91
2023/09/30 10:20:35;;;;;;;1.70;1.20;;;21.30;99.90;;;;;;7416000;19;20254;-89
2023/09/30 10:23:27;;;;;;;2.05;1.42;;;21.30;99.90;;;;;;7404708;19;20131;-86
2023/09/30 10:26:14;;;;;;;1.15;0.80;;;21.20;99.90;;;;;;7394396;19;20154;-89
2023/09/30 10:28:44;;;;;;;1.23;0.98;;;21.30;99.90;;;;;;7396365;19;20167;-90
2023/09/30 10:31:26;;;;;;;1.33;0.70;;;21.20;99.90;;;;;;7396708;19;20142;-90
2023/09/30 10:34:01;;;;;;;1.05;0.95;;;21.30;99.90;;;;;;7397290;19;20210;-89
2023/09/30 10:36:32;;;;;;;2.25;1.58;;;21.20;99.90;;;;;;7395814;19;20146;-89
2023/09/30 10:39:02;;;;;;;1.60;1.17;;;21.20;99.90;;;;;;7397681;19;20269;-90
2023/09/30 10:41:50;;;;;;;4.22;1.30;;;21.30;99.90;;;;;;7394325;19;20194;-87
2023/09/30 10:44:25;;;;;;;2.45;1.38;;;21.20;99.90;;;;;;7396818;19;20186;-90
2023/09/30 10:46:55;;;;;;;1.90;1.40;;;20.90;99.90;;;;;;7397252;19;20176;-89
2023/09/30 10:49:24;;;;;;;3.45;2.25;;;20.80;99.90;;;;;;7396884;19;20154;-88
2023/09/30 10:51:57;;;;;;;2.67;1.60;;;20.80;99.90;;;;;;7394647;19;20150;-87
2023/09/30 10:54:28;;;;;;;3.10;1.60;;;20.80;99.90;;;;;;7393691;19;20206;-86
2023/09/30 10:56:54;;;;;;;2.33;1.55;;;20.70;99.90;;;;;;7397948;19;20742;-85
2023/09/30 10:59:22;;;;;;;2.42;1.23;;;20.70;99.90;;;;;;7395246;19;20153;-87
2023/09/30 11:01:49;;;;;;;1.15;1.05;;;20.90;99.90;;;;;;7396284;19;20602;-85
2023/09/30 11:04:21;;;;;;;1.65;1.08;;;20.90;99.90;;;;;;7396024;19;20445;-86
2023/09/30 11:06:51;;;;;;;1.40;1.20;;;20.80;99.90;;;;;;7392030;19;20142;-87
2023/09/30 11:09:21;;;;;;;1.67;1.05;;;21.00;99.90;;;;;;7395604;19;20533;-86
2023/09/30 11:11:48;;;;;;;1.83;1.10;;;21.00;99.90;;;;;;7393497;19;20210;-87
2023/09/30 11:14:28;;;;;;;1.45;1.08;;;21.00;99.90;;;;;;7395579;19;20242;-86
2023/09/30 11:17:06;;;;;;;3.15;2.05;;;21.00;99.90;;;;;;7396086;19;20197;-88
2023/09/30 11:19:36;;;;;;;1.70;1.20;;;21.20;99.90;;;;;;7395240;19;20533;-88
2023/09/30 11:22:03;;;;;;;1.88;1.30;;;21.20;99.90;;;;;;7395121;19;20143;-87
2023/09/30 11:24:36;;;;;;;1.52;1.23;;;21.30;99.90;;;;;;7396122;19;20186;-86
2023/09/30 11:27:02;;;;;;;1.73;1.10;;;21.30;99.90;;;;;;7396321;19;20134;-86
2023/09/30 11:29:28;;;;;;;4.25;1.83;;;21.40;99.90;;;;;;7394238;19;20628;-88
2023/09/30 11:31:53;;;;;;;3.05;1.30;;;21.50;99.90;;;;;;7393816;19;20483;-89
2023/09/30 11:34:19;;;;;;;3.17;1.83;;;21.60;99.90;;;;;;7394515;19;20134;-89
2023/09/30 11:36:56;;;;;;;2.00;1.30;;;21.80;99.90;;;;;;7393960;19;20154;-87
2023/09/30 11:39:27;;;;;;;1.88;1.25;;;21.80;99.90;;;;;;7394570;19;20154;-87
2023/09/30 11:41:56;;;;;;;2.85;1.60;;;21.80;99.90;;;;;;7394630;19;20871;-87
2023/09/30 11:44:31;;;;;;;2.78;1.20;;;21.70;99.90;;;;;;7397523;19;20576;-91
2023/09/30 11:47:00;;;;;;;3.28;1.33;;;21.60;99.90;;;;;;7398247;19;20142;-89
2023/09/30 11:49:32;;;;;;;2.78;1.25;;;21.60;99.90;;;;;;7394290;19;20134;-87
2023/09/30 11:52:00;;;;;;;2.25;1.30;;;21.80;99.90;;;;;;7395573;19;20141;-87
2023/09/30 11:54:34;;;;;;;1.58;1.27;;;22.10;99.90;;;;;;7395025;19;20147;-87
2023/09/30 11:57:01;;;;;;;1.67;1.17;;;22.10;99.90;;;;;;7392005;19;20138;-87
2023/09/30 11:59:27;;;;;;;1.10;1.00;;;22.10;99.90;;;;;;7395919;19;20154;-88
2023/09/30 12:01:54;;;;;;;1.67;1.08;;;22.00;99.90;;;;;;7394231;19;20600;-85
2023/09/30 12:04:21;;;;;;;2.50;1.55;;;22.00;99.90;;;;;;7393455;19;20241;-86
2023/09/30 12:06:48;;;;;;;2.67;1.45;;;21.90;99.90;;;;;;7390670;19;20146;-87
2023/09/30 12:09:22;;;;;;;2.53;1.35;;;21.80;99.90;;;;;;7388786;19;20178;-85
2023/09/30 12:11:49;;;;;;;1.77;1.15;;;21.70;99.90;;;;;;7394583;19;20154;-87
2023/09/30 12:14:15;;;;;;;3.60;1.60;;;21.60;99.90;;;;;;7393735;19;20167;-83
2023/09/30 12:16:41;;;;;;;1.92;1.13;;;21.60;99.90;;;;;;7392789;19;20127;-84
2023/09/30 12:19:08;;;;;;;2.42;1.38;;;21.60;99.90;;;;;;7397759;19;20522;-83
2023/09/30 12:21:34;;;;;;;2.53;1.40;;;21.50;99.90;;;;;;7394503;19;20142;-87
2023/09/30 12:24:01;;;;;;;2.97;1.08;;;21.60;99.90;;;;;;7397194;19;20728;-86
2023/09/30 12:26:27;;;;;;;2.28;1.45;;;21.40;99.90;;;;;;7393414;19;20162;-84
2023/09/30 12:28:53;;;;;;;2.15;1.27;;;21.40;99.90;;;;;;7393353;19;20498;-87
2023/09/30 12:31:20;;;;;;;3.08;1.40;;;21.30;99.90;;;;;;7396625;19;20615;-88
2023/09/30 12:33:50;;;;;;;2.70;1.33;;;21.30;99.90;;;;;;7392523;19;20154;-85
2023/09/30 12:36:16;;;;;;;2.55;1.40;;;21.40;99.90;;;;;;7400432;19;20162;-85
2023/09/30 12:38:42;;;;;;;2.38;1.40;;;21.50;99.90;;;;;;7399615;19;20154;-84
2023/09/30 12:41:08;;;;;;;1.55;1.10;;;21.50;99.90;;;;;;7398474;19;20656;-85
2023/09/30 12:43:34;;;;;;;1.77;1.05;;;21.50;99.90;;;;;;7399117;19;20170;-87
2023/09/30 12:46:00;;;;;;;1.98;0.98;;;21.60;99.90;;;;;;7395210;19;20141;-85
2023/09/30 12:48:26;;;;;;;1.42;1.08;;;21.70;99.90;;;;;;7396176;19;20146;-87
2023/09/30 12:50:52;;;;;;;2.40;1.50;;;21.60;99.90;;;;;;7395190;19;20167;-87
2023/09/30 12:53:18;;;;;;;3.10;1.58;;;21.90;99.90;;;;;;7392061;19;20135;-87
2023/09/30 12:55:44;;;;;;;2.75;1.60;;;21.90;99.90;;;;;;7392004;19;20153;-86